sensor_id;sensor_type;location;lat;lon;timestamp;P1;durP1;ratioP1;P2;durP2;ratioP2
54428;SDS011;40337;52.978;6.310;2023-02-15T00:00:15;19.17;;;17.38;;
54428;SDS011;40337;52.978;6.310;2023-02-15T00:02:41;18.25;;;16.55;;
54428;SDS011;40337;52.978;6.310;2023-02-15T00:05:07;17.80;;;16.00;;
54428;SDS011;40337;52.978;6.310;2023-02-15T00:07:33;18.45;;;16.75;;
54428;SDS011;40337;52.978;6.310;2023-02-15T00:09:58;17.08;;;15.57;;
54428;SDS011;40337;52.978;6.310;2023-02-15T00:12:24;17.55;;;15.93;;
54428;SDS011;40337;52.978;6.310;2023-02-15T00:14:49;17.73;;;16.02;;
54428;SDS011;40337;52.978;6.310;2023-02-15T00:17:15;14.45;;;13.05;;
54428;SDS011;40337;52.978;6.310;2023-02-15T00:19:40;15.57;;;14.18;;
54428;SDS011;40337;52.978;6.310;2023-02-15T00:22:06;15.73;;;14.23;;
54428;SDS011;40337;52.978;6.310;2023-02-15T00:24:32;16.23;;;14.73;;
54428;SDS011;40337;52.978;6.310;2023-02-15T00:26:57;21.85;;;19.80;;
54428;SDS011;40337;52.978;6.310;2023-02-15T00:29:23;20.02;;;18.23;;
54428;SDS011;40337;52.978;6.310;2023-02-15T00:31:49;19.48;;;17.58;;
54428;SDS011;40337;52.978;6.310;2023-02-15T00:34:19;18.92;;;17.08;;
54428;SDS011;40337;52.978;6.310;2023-02-15T00:36:46;18.60;;;16.80;;
54428;SDS011;40337;52.978;6.310;2023-02-15T00:39:12;21.25;;;19.05;;
54428;SDS011;40337;52.978;6.310;2023-02-15T00:41:38;20.02;;;18.13;;
54428;SDS011;40337;52.978;6.310;2023-02-15T00:44:04;19.63;;;17.67;;
54428;SDS011;40337;52.978;6.310;2023-02-15T00:46:30;19.88;;;17.98;;
54428;SDS011;40337;52.978;6.310;2023-02-15T00:48:56;17.73;;;16.02;;
54428;SDS011;40337;52.978;6.310;2023-02-15T00:51:22;18.25;;;16.33;;
54428;SDS011;40337;52.978;6.310;2023-02-15T00:53:48;17.40;;;15.73;;
54428;SDS011;40337;52.978;6.310;2023-02-15T00:56:14;19.02;;;17.13;;
54428;SDS011;40337;52.978;6.310;2023-02-15T00:58:40;18.35;;;16.55;;
54428;SDS011;40337;52.978;6.310;2023-02-15T01:01:07;17.92;;;16.23;;
54428;SDS011;40337;52.978;6.310;2023-02-15T01:03:34;17.63;;;16.02;;
54428;SDS011;40337;52.978;6.310;2023-02-15T01:06:00;18.30;;;16.58;;
54428;SDS011;40337;52.978;6.310;2023-02-15T01:08:26;18.15;;;16.42;;
54428;SDS011;40337;52.978;6.310;2023-02-15T01:10:52;18.40;;;16.60;;
54428;SDS011;40337;52.978;6.310;2023-02-15T01:13:18;18.90;;;17.10;;
54428;SDS011;40337;52.978;6.310;2023-02-15T01:15:44;18.65;;;16.85;;
54428;SDS011;40337;52.978;6.310;2023-02-15T01:18:10;18.45;;;16.65;;
54428;SDS011;40337;52.978;6.310;2023-02-15T01:20:37;16.67;;;15.05;;
54428;SDS011;40337;52.978;6.310;2023-02-15T01:23:04;16.20;;;14.68;;
54428;SDS011;40337;52.978;6.310;2023-02-15T01:25:30;16.83;;;15.20;;
54428;SDS011;40337;52.978;6.310;2023-02-15T01:27:55;17.00;;;15.30;;
54428;SDS011;40337;52.978;6.310;2023-02-15T01:30:21;16.55;;;15.05;;
54428;SDS011;40337;52.978;6.310;2023-02-15T01:32:46;15.32;;;13.82;;
54428;SDS011;40337;52.978;6.310;2023-02-15T01:35:12;15.82;;;14.38;;
54428;SDS011;40337;52.978;6.310;2023-02-15T01:37:38;17.13;;;15.52;;
54428;SDS011;40337;52.978;6.310;2023-02-15T01:40:04;16.00;;;14.45;;
54428;SDS011;40337;52.978;6.310;2023-02-15T01:42:32;17.83;;;16.13;;
54428;SDS011;40337;52.978;6.310;2023-02-15T01:45:03;16.65;;;15.15;;
54428;SDS011;40337;52.978;6.310;2023-02-15T01:47:40;17.38;;;15.68;;
54428;SDS011;40337;52.978;6.310;2023-02-15T01:50:18;17.42;;;15.85;;
54428;SDS011;40337;52.978;6.310;2023-02-15T01:52:48;17.10;;;15.52;;
54428;SDS011;40337;52.978;6.310;2023-02-15T01:55:24;16.92;;;15.43;;
54428;SDS011;40337;52.978;6.310;2023-02-15T01:57:52;15.48;;;14.07;;
54428;SDS011;40337;52.978;6.310;2023-02-15T02:00:18;15.60;;;14.15;;
54428;SDS011;40337;52.978;6.310;2023-02-15T02:02:45;15.57;;;14.18;;
54428;SDS011;40337;52.978;6.310;2023-02-15T02:05:15;15.35;;;13.95;;
54428;SDS011;40337;52.978;6.310;2023-02-15T02:07:42;14.98;;;13.68;;
54428;SDS011;40337;52.978;6.310;2023-02-15T02:10:12;14.88;;;13.52;;
54428;SDS011;40337;52.978;6.310;2023-02-15T02:12:39;16.13;;;14.63;;
54428;SDS011;40337;52.978;6.310;2023-02-15T02:15:07;16.05;;;14.43;;
54428;SDS011;40337;52.978;6.310;2023-02-15T02:20:15;15.95;;;14.45;;
54428;SDS011;40337;52.978;6.310;2023-02-15T02:23:07;16.20;;;14.80;;
54428;SDS011;40337;52.978;6.310;2023-02-15T02:34:33;18.58;;;16.67;;
54428;SDS011;40337;52.978;6.310;2023-02-15T02:39:50;15.77;;;14.30;;
54428;SDS011;40337;52.978;6.310;2023-02-15T02:45:16;15.57;;;14.18;;
54428;SDS011;40337;52.978;6.310;2023-02-15T02:47:52;16.85;;;15.32;;
54428;SDS011;40337;52.978;6.310;2023-02-15T02:50:26;16.50;;;15.00;;
54428;SDS011;40337;52.978;6.310;2023-02-15T02:52:54;17.88;;;16.27;;
54428;SDS011;40337;52.978;6.310;2023-02-15T02:58:19;18.08;;;16.38;;
54428;SDS011;40337;52.978;6.310;2023-02-15T03:03:27;18.05;;;16.25;;
54428;SDS011;40337;52.978;6.310;2023-02-15T03:06:23;18.50;;;16.67;;
54428;SDS011;40337;52.978;6.310;2023-02-15T03:08:56;16.85;;;15.25;;
54428;SDS011;40337;52.978;6.310;2023-02-15T03:11:28;17.13;;;15.43;;
54428;SDS011;40337;52.978;6.310;2023-02-15T03:13:54;18.98;;;17.08;;
54428;SDS011;40337;52.978;6.310;2023-02-15T03:16:20;15.48;;;13.98;;
54428;SDS011;40337;52.978;6.310;2023-02-15T03:18:57;14.80;;;13.40;;
54428;SDS011;40337;52.978;6.310;2023-02-15T03:21:30;19.27;;;17.48;;
54428;SDS011;40337;52.978;6.310;2023-02-15T03:24:09;18.63;;;16.73;;
54428;SDS011;40337;52.978;6.310;2023-02-15T03:26:38;17.55;;;15.85;;
54428;SDS011;40337;52.978;6.310;2023-02-15T03:29:07;17.40;;;15.70;;
54428;SDS011;40337;52.978;6.310;2023-02-15T03:31:36;21.77;;;19.48;;
54428;SDS011;40337;52.978;6.310;2023-02-15T03:34:06;22.77;;;20.45;;
54428;SDS011;40337;52.978;6.310;2023-02-15T03:36:58;22.88;;;20.50;;
54428;SDS011;40337;52.978;6.310;2023-02-15T03:39:51;21.05;;;19.05;;
54428;SDS011;40337;52.978;6.310;2023-02-15T03:42:31;22.25;;;20.13;;
54428;SDS011;40337;52.978;6.310;2023-02-15T03:45:05;23.35;;;21.13;;
54428;SDS011;40337;52.978;6.310;2023-02-15T03:47:36;23.35;;;20.95;;
54428;SDS011;40337;52.978;6.310;2023-02-15T03:50:12;24.58;;;22.08;;
54428;SDS011;40337;52.978;6.310;2023-02-15T03:53:10;24.83;;;22.42;;
54428;SDS011;40337;52.978;6.310;2023-02-15T03:55:39;24.55;;;22.15;;
54428;SDS011;40337;52.978;6.310;2023-02-15T03:58:04;22.83;;;20.50;;
54428;SDS011;40337;52.978;6.310;2023-02-15T04:00:49;24.20;;;21.80;;
54428;SDS011;40337;52.978;6.310;2023-02-15T04:03:40;23.48;;;21.17;;
54428;SDS011;40337;52.978;6.310;2023-02-15T04:06:27;24.42;;;21.98;;
54428;SDS011;40337;52.978;6.310;2023-02-15T04:08:53;27.20;;;24.30;;
54428;SDS011;40337;52.978;6.310;2023-02-15T04:11:37;28.90;;;25.90;;
54428;SDS011;40337;52.978;6.310;2023-02-15T04:14:03;27.48;;;24.67;;
54428;SDS011;40337;52.978;6.310;2023-02-15T04:16:48;28.10;;;25.23;;
54428;SDS011;40337;52.978;6.310;2023-02-15T04:19:14;27.23;;;24.42;;
54428;SDS011;40337;52.978;6.310;2023-02-15T04:21:58;28.30;;;25.55;;
54428;SDS011;40337;52.978;6.310;2023-02-15T04:24:42;24.05;;;21.67;;
54428;SDS011;40337;52.978;6.310;2023-02-15T04:27:27;23.25;;;21.00;;
54428;SDS011;40337;52.978;6.310;2023-02-15T04:29:52;25.13;;;22.70;;
54428;SDS011;40337;52.978;6.310;2023-02-15T04:32:18;24.02;;;21.63;;
54428;SDS011;40337;52.978;6.310;2023-02-15T04:34:43;24.90;;;22.50;;
54428;SDS011;40337;52.978;6.310;2023-02-15T04:37:09;25.83;;;23.23;;
54428;SDS011;40337;52.978;6.310;2023-02-15T04:39:35;24.98;;;22.58;;
54428;SDS011;40337;52.978;6.310;2023-02-15T04:42:01;24.00;;;21.60;;
54428;SDS011;40337;52.978;6.310;2023-02-15T04:44:26;25.02;;;22.52;;
54428;SDS011;40337;52.978;6.310;2023-02-15T04:46:52;26.27;;;23.67;;
54428;SDS011;40337;52.978;6.310;2023-02-15T04:49:17;26.27;;;23.70;;
54428;SDS011;40337;52.978;6.310;2023-02-15T04:51:43;23.88;;;21.58;;
54428;SDS011;40337;52.978;6.310;2023-02-15T04:54:08;26.52;;;24.02;;
54428;SDS011;40337;52.978;6.310;2023-02-15T04:56:34;25.88;;;23.33;;
54428;SDS011;40337;52.978;6.310;2023-02-15T04:59:02;25.80;;;23.30;;
54428;SDS011;40337;52.978;6.310;2023-02-15T05:01:28;26.27;;;23.77;;
54428;SDS011;40337;52.978;6.310;2023-02-15T05:03:53;28.50;;;25.55;;
54428;SDS011;40337;52.978;6.310;2023-02-15T05:06:19;27.02;;;24.25;;
54428;SDS011;40337;52.978;6.310;2023-02-15T05:08:44;27.02;;;24.33;;
54428;SDS011;40337;52.978;6.310;2023-02-15T05:11:10;30.27;;;27.27;;
54428;SDS011;40337;52.978;6.310;2023-02-15T05:13:35;31.60;;;28.40;;
54428;SDS011;40337;52.978;6.310;2023-02-15T05:16:01;30.27;;;27.17;;
54428;SDS011;40337;52.978;6.310;2023-02-15T05:18:26;31.17;;;27.75;;
54428;SDS011;40337;52.978;6.310;2023-02-15T05:20:52;30.08;;;27.00;;
54428;SDS011;40337;52.978;6.310;2023-02-15T05:23:18;31.58;;;28.38;;
54428;SDS011;40337;52.978;6.310;2023-02-15T05:25:47;31.98;;;28.77;;
54428;SDS011;40337;52.978;6.310;2023-02-15T05:28:32;32.15;;;28.83;;
54428;SDS011;40337;52.978;6.310;2023-02-15T05:31:05;33.15;;;29.70;;
54428;SDS011;40337;52.978;6.310;2023-02-15T05:33:34;33.42;;;29.88;;
54428;SDS011;40337;52.978;6.310;2023-02-15T05:35:59;34.15;;;30.63;;
54428;SDS011;40337;52.978;6.310;2023-02-15T05:38:25;35.70;;;32.00;;
54428;SDS011;40337;52.978;6.310;2023-02-15T05:40:51;34.65;;;30.95;;
54428;SDS011;40337;52.978;6.310;2023-02-15T05:43:17;32.63;;;29.13;;
54428;SDS011;40337;52.978;6.310;2023-02-15T05:45:47;31.15;;;27.90;;
54428;SDS011;40337;52.978;6.310;2023-02-15T05:48:13;29.02;;;25.95;;
54428;SDS011;40337;52.978;6.310;2023-02-15T05:50:39;33.97;;;29.80;;
54428;SDS011;40337;52.978;6.310;2023-02-15T05:53:05;35.80;;;32.00;;
54428;SDS011;40337;52.978;6.310;2023-02-15T05:55:30;36.97;;;32.20;;
54428;SDS011;40337;52.978;6.310;2023-02-15T05:57:56;37.65;;;33.63;;
54428;SDS011;40337;52.978;6.310;2023-02-15T06:00:21;35.15;;;31.15;;
54428;SDS011;40337;52.978;6.310;2023-02-15T06:02:47;34.50;;;30.80;;
54428;SDS011;40337;52.978;6.310;2023-02-15T06:05:12;32.55;;;29.02;;
54428;SDS011;40337;52.978;6.310;2023-02-15T06:07:38;33.35;;;29.75;;
54428;SDS011;40337;52.978;6.310;2023-02-15T06:10:03;33.55;;;29.88;;
54428;SDS011;40337;52.978;6.310;2023-02-15T06:12:29;33.72;;;30.13;;
54428;SDS011;40337;52.978;6.310;2023-02-15T06:14:55;33.80;;;29.98;;
54428;SDS011;40337;52.978;6.310;2023-02-15T06:17:21;36.33;;;31.90;;
54428;SDS011;40337;52.978;6.310;2023-02-15T06:19:46;37.00;;;33.10;;
54428;SDS011;40337;52.978;6.310;2023-02-15T06:22:12;35.40;;;31.65;;
54428;SDS011;40337;52.978;6.310;2023-02-15T06:24:39;36.72;;;32.90;;
54428;SDS011;40337;52.978;6.310;2023-02-15T06:27:05;37.42;;;33.33;;
54428;SDS011;40337;52.978;6.310;2023-02-15T06:29:30;39.70;;;35.45;;
54428;SDS011;40337;52.978;6.310;2023-02-15T06:31:56;43.15;;;36.38;;
54428;SDS011;40337;52.978;6.310;2023-02-15T06:34:21;38.95;;;34.47;;
54428;SDS011;40337;52.978;6.310;2023-02-15T06:36:47;38.38;;;33.22;;
54428;SDS011;40337;52.978;6.310;2023-02-15T06:39:12;40.88;;;33.83;;
54428;SDS011;40337;52.978;6.310;2023-02-15T06:41:38;35.90;;;31.58;;
54428;SDS011;40337;52.978;6.310;2023-02-15T06:44:04;36.08;;;31.70;;
54428;SDS011;40337;52.978;6.310;2023-02-15T06:46:29;38.05;;;32.85;;
54428;SDS011;40337;52.978;6.310;2023-02-15T06:48:55;37.67;;;32.10;;
54428;SDS011;40337;52.978;6.310;2023-02-15T06:51:21;39.75;;;34.63;;
54428;SDS011;40337;52.978;6.310;2023-02-15T06:53:46;39.58;;;33.28;;
54428;SDS011;40337;52.978;6.310;2023-02-15T06:56:12;36.17;;;30.63;;
54428;SDS011;40337;52.978;6.310;2023-02-15T06:58:38;33.58;;;29.95;;
54428;SDS011;40337;52.978;6.310;2023-02-15T07:01:05;34.80;;;30.25;;
54428;SDS011;40337;52.978;6.310;2023-02-15T07:03:31;33.92;;;29.02;;
54428;SDS011;40337;52.978;6.310;2023-02-15T07:05:59;35.75;;;30.20;;
54428;SDS011;40337;52.978;6.310;2023-02-15T07:08:26;34.63;;;29.13;;
54428;SDS011;40337;52.978;6.310;2023-02-15T07:10:53;31.67;;;27.98;;
54428;SDS011;40337;52.978;6.310;2023-02-15T07:13:19;33.85;;;28.60;;
54428;SDS011;40337;52.978;6.310;2023-02-15T07:15:46;42.78;;;31.52;;
54428;SDS011;40337;52.978;6.310;2023-02-15T07:18:12;40.30;;;34.42;;
54428;SDS011;40337;52.978;6.310;2023-02-15T07:20:38;41.65;;;35.22;;
54428;SDS011;40337;52.978;6.310;2023-02-15T07:23:05;37.38;;;31.48;;
54428;SDS011;40337;52.978;6.310;2023-02-15T07:25:30;52.72;;;32.80;;
54428;SDS011;40337;52.978;6.310;2023-02-15T07:27:56;42.42;;;36.13;;
54428;SDS011;40337;52.978;6.310;2023-02-15T07:30:23;46.95;;;38.17;;
54428;SDS011;40337;52.978;6.310;2023-02-15T07:32:49;47.78;;;39.25;;
54428;SDS011;40337;52.978;6.310;2023-02-15T07:35:48;44.05;;;37.75;;
54428;SDS011;40337;52.978;6.310;2023-02-15T07:38:22;45.15;;;37.13;;
54428;SDS011;40337;52.978;6.310;2023-02-15T07:40:49;42.45;;;36.47;;
54428;SDS011;40337;52.978;6.310;2023-02-15T07:43:15;45.20;;;37.17;;
54428;SDS011;40337;52.978;6.310;2023-02-15T07:45:41;42.40;;;36.10;;
54428;SDS011;40337;52.978;6.310;2023-02-15T07:48:06;57.53;;;36.28;;
54428;SDS011;40337;52.978;6.310;2023-02-15T07:50:32;42.85;;;32.88;;
54428;SDS011;40337;52.978;6.310;2023-02-15T07:52:58;45.67;;;32.90;;
54428;SDS011;40337;52.978;6.310;2023-02-15T07:55:26;44.42;;;34.95;;
54428;SDS011;40337;52.978;6.310;2023-02-15T07:57:52;39.58;;;32.78;;
54428;SDS011;40337;52.978;6.310;2023-02-15T08:00:19;38.08;;;31.90;;
54428;SDS011;40337;52.978;6.310;2023-02-15T08:02:50;38.85;;;33.88;;
54428;SDS011;40337;52.978;6.310;2023-02-15T08:05:37;42.88;;;34.53;;
54428;SDS011;40337;52.978;6.310;2023-02-15T08:08:04;43.35;;;36.05;;
54428;SDS011;40337;52.978;6.310;2023-02-15T08:10:30;43.42;;;35.28;;
54428;SDS011;40337;52.978;6.310;2023-02-15T08:13:14;46.42;;;37.58;;
54428;SDS011;40337;52.978;6.310;2023-02-15T08:15:47;56.08;;;37.20;;
54428;SDS011;40337;52.978;6.310;2023-02-15T08:18:13;46.53;;;36.80;;
54428;SDS011;40337;52.978;6.310;2023-02-15T08:20:39;44.45;;;35.92;;
54428;SDS011;40337;52.978;6.310;2023-02-15T08:23:04;43.30;;;35.97;;
54428;SDS011;40337;52.978;6.310;2023-02-15T08:25:30;43.28;;;36.10;;
54428;SDS011;40337;52.978;6.310;2023-02-15T08:27:55;42.90;;;36.28;;
54428;SDS011;40337;52.978;6.310;2023-02-15T08:30:21;47.00;;;37.00;;
54428;SDS011;40337;52.978;6.310;2023-02-15T08:32:46;49.28;;;39.97;;
54428;SDS011;40337;52.978;6.310;2023-02-15T08:35:12;51.35;;;39.75;;
54428;SDS011;40337;52.978;6.310;2023-02-15T08:37:37;51.05;;;40.05;;
54428;SDS011;40337;52.978;6.310;2023-02-15T08:40:03;47.65;;;38.78;;
54428;SDS011;40337;52.978;6.310;2023-02-15T08:42:32;44.75;;;35.78;;
54428;SDS011;40337;52.978;6.310;2023-02-15T08:44:58;37.42;;;31.35;;
54428;SDS011;40337;52.978;6.310;2023-02-15T08:47:23;39.85;;;33.65;;
54428;SDS011;40337;52.978;6.310;2023-02-15T08:49:49;37.63;;;31.60;;
54428;SDS011;40337;52.978;6.310;2023-02-15T08:52:16;36.13;;;31.20;;
54428;SDS011;40337;52.978;6.310;2023-02-15T08:54:41;38.85;;;32.63;;
54428;SDS011;40337;52.978;6.310;2023-02-15T08:57:07;39.22;;;32.22;;
54428;SDS011;40337;52.978;6.310;2023-02-15T08:59:33;35.17;;;30.73;;
54428;SDS011;40337;52.978;6.310;2023-02-15T09:01:58;41.35;;;33.65;;
54428;SDS011;40337;52.978;6.310;2023-02-15T09:04:25;35.95;;;30.52;;
54428;SDS011;40337;52.978;6.310;2023-02-15T09:06:51;34.83;;;30.40;;
54428;SDS011;40337;52.978;6.310;2023-02-15T09:09:17;37.72;;;30.42;;
54428;SDS011;40337;52.978;6.310;2023-02-15T09:11:44;37.88;;;32.83;;
54428;SDS011;40337;52.978;6.310;2023-02-15T09:14:12;33.95;;;29.45;;
54428;SDS011;40337;52.978;6.310;2023-02-15T09:16:39;33.60;;;28.63;;
54428;SDS011;40337;52.978;6.310;2023-02-15T09:19:07;35.55;;;28.80;;
54428;SDS011;40337;52.978;6.310;2023-02-15T09:21:34;39.45;;;32.42;;
54428;SDS011;40337;52.978;6.310;2023-02-15T09:24:03;41.47;;;34.05;;
54428;SDS011;40337;52.978;6.310;2023-02-15T09:26:32;40.70;;;34.03;;
54428;SDS011;40337;52.978;6.310;2023-02-15T09:29:00;41.45;;;34.20;;
54428;SDS011;40337;52.978;6.310;2023-02-15T09:31:29;40.42;;;33.83;;
54428;SDS011;40337;52.978;6.310;2023-02-15T09:33:56;39.22;;;32.38;;
54428;SDS011;40337;52.978;6.310;2023-02-15T09:36:24;42.22;;;34.58;;
54428;SDS011;40337;52.978;6.310;2023-02-15T09:38:54;36.00;;;30.90;;
54428;SDS011;40337;52.978;6.310;2023-02-15T09:47:04;33.85;;;29.52;;
54428;SDS011;40337;52.978;6.310;2023-02-15T09:58:22;36.63;;;30.27;;
54428;SDS011;40337;52.978;6.310;2023-02-15T10:01:14;40.10;;;32.03;;
54428;SDS011;40337;52.978;6.310;2023-02-15T10:04:11;37.10;;;32.08;;
54428;SDS011;40337;52.978;6.310;2023-02-15T10:15:20;37.45;;;31.10;;
54428;SDS011;40337;52.978;6.310;2023-02-15T10:20:55;42.55;;;33.50;;
54428;SDS011;40337;52.978;6.310;2023-02-15T10:26:11;38.63;;;32.08;;
54428;SDS011;40337;52.978;6.310;2023-02-15T10:28:56;37.58;;;31.05;;
54428;SDS011;40337;52.978;6.310;2023-02-15T10:34:06;38.72;;;31.83;;
54428;SDS011;40337;52.978;6.310;2023-02-15T10:36:58;37.03;;;31.00;;
54428;SDS011;40337;52.978;6.310;2023-02-15T10:39:50;41.60;;;32.15;;
54428;SDS011;40337;52.978;6.310;2023-02-15T10:45:10;38.88;;;31.92;;
54428;SDS011;40337;52.978;6.310;2023-02-15T10:48:09;39.05;;;30.65;;
54428;SDS011;40337;52.978;6.310;2023-02-15T10:53:59;37.83;;;30.05;;
54428;SDS011;40337;52.978;6.310;2023-02-15T10:56:29;35.72;;;29.42;;
54428;SDS011;40337;52.978;6.310;2023-02-15T10:59:22;36.35;;;30.92;;
54428;SDS011;40337;52.978;6.310;2023-02-15T11:08:07;37.08;;;29.02;;
54428;SDS011;40337;52.978;6.310;2023-02-15T11:10:35;36.25;;;28.20;;
54428;SDS011;40337;52.978;6.310;2023-02-15T11:13:09;33.80;;;27.75;;
54428;SDS011;40337;52.978;6.310;2023-02-15T11:15:40;35.58;;;28.65;;
54428;SDS011;40337;52.978;6.310;2023-02-15T11:20:42;35.63;;;29.15;;
54428;SDS011;40337;52.978;6.310;2023-02-15T11:25:58;36.33;;;30.02;;
54428;SDS011;40337;52.978;6.310;2023-02-15T11:28:31;38.47;;;31.10;;
54428;SDS011;40337;52.978;6.310;2023-02-15T11:31:02;35.80;;;29.58;;
54428;SDS011;40337;52.978;6.310;2023-02-15T11:33:46;37.80;;;31.38;;
54428;SDS011;40337;52.978;6.310;2023-02-15T11:36:33;39.67;;;31.02;;
54428;SDS011;40337;52.978;6.310;2023-02-15T11:39:05;39.88;;;31.60;;
54428;SDS011;40337;52.978;6.310;2023-02-15T11:41:40;39.60;;;31.83;;
54428;SDS011;40337;52.978;6.310;2023-02-15T11:44:16;38.88;;;31.42;;
54428;SDS011;40337;52.978;6.310;2023-02-15T11:46:53;41.10;;;32.83;;
54428;SDS011;40337;52.978;6.310;2023-02-15T11:51:54;39.03;;;32.35;;
54428;SDS011;40337;52.978;6.310;2023-02-15T11:54:23;39.33;;;31.48;;
54428;SDS011;40337;52.978;6.310;2023-02-15T11:56:59;39.58;;;32.10;;
54428;SDS011;40337;52.978;6.310;2023-02-15T11:59:35;35.53;;;30.20;;
54428;SDS011;40337;52.978;6.310;2023-02-15T12:02:02;37.75;;;30.38;;
54428;SDS011;40337;52.978;6.310;2023-02-15T12:04:38;37.15;;;30.67;;
54428;SDS011;40337;52.978;6.310;2023-02-15T12:10:03;37.63;;;29.52;;
54428;SDS011;40337;52.978;6.310;2023-02-15T12:12:39;37.47;;;29.83;;
54428;SDS011;40337;52.978;6.310;2023-02-15T12:15:06;39.45;;;29.67;;
54428;SDS011;40337;52.978;6.310;2023-02-15T12:17:34;35.80;;;29.58;;
54428;SDS011;40337;52.978;6.310;2023-02-15T12:20:06;37.42;;;28.10;;
54428;SDS011;40337;52.978;6.310;2023-02-15T12:25:42;37.42;;;28.02;;
54428;SDS011;40337;52.978;6.310;2023-02-15T12:31:00;33.35;;;26.80;;
54428;SDS011;40337;52.978;6.310;2023-02-15T12:33:29;32.60;;;26.63;;
54428;SDS011;40337;52.978;6.310;2023-02-15T12:36:20;34.10;;;26.60;;
54428;SDS011;40337;52.978;6.310;2023-02-15T12:39:04;33.30;;;25.77;;
54428;SDS011;40337;52.978;6.310;2023-02-15T12:41:36;33.63;;;26.25;;
54428;SDS011;40337;52.978;6.310;2023-02-15T12:47:18;35.40;;;25.90;;
54428;SDS011;40337;52.978;6.310;2023-02-15T12:49:41;35.97;;;26.95;;
54428;SDS011;40337;52.978;6.310;2023-02-15T12:54:43;30.15;;;25.70;;
54428;SDS011;40337;52.978;6.310;2023-02-15T12:57:13;33.13;;;25.35;;
54428;SDS011;40337;52.978;6.310;2023-02-15T12:59:49;32.53;;;25.77;;
54428;SDS011;40337;52.978;6.310;2023-02-15T13:02:19;30.98;;;25.73;;
54428;SDS011;40337;52.978;6.310;2023-02-15T13:04:50;32.72;;;26.23;;
54428;SDS011;40337;52.978;6.310;2023-02-15T13:07:17;30.95;;;24.98;;
54428;SDS011;40337;52.978;6.310;2023-02-15T13:09:43;29.85;;;24.50;;
54428;SDS011;40337;52.978;6.310;2023-02-15T13:14:52;31.60;;;24.95;;
54428;SDS011;40337;52.978;6.310;2023-02-15T13:17:32;33.40;;;25.27;;
54428;SDS011;40337;52.978;6.310;2023-02-15T13:20:20;32.83;;;24.10;;
54428;SDS011;40337;52.978;6.310;2023-02-15T13:22:49;34.40;;;24.95;;
54428;SDS011;40337;52.978;6.310;2023-02-15T13:25:19;30.70;;;24.95;;
54428;SDS011;40337;52.978;6.310;2023-02-15T13:27:51;34.50;;;25.60;;
54428;SDS011;40337;52.978;6.310;2023-02-15T13:30:31;66.82;;;26.95;;
54428;SDS011;40337;52.978;6.310;2023-02-15T13:33:09;31.45;;;24.73;;
54428;SDS011;40337;52.978;6.310;2023-02-15T13:35:55;31.23;;;23.90;;
54428;SDS011;40337;52.978;6.310;2023-02-15T13:44:47;31.00;;;24.10;;
54428;SDS011;40337;52.978;6.310;2023-02-15T13:50:31;30.98;;;24.90;;
54428;SDS011;40337;52.978;6.310;2023-02-15T13:56:02;32.28;;;25.00;;
54428;SDS011;40337;52.978;6.310;2023-02-15T13:58:54;29.45;;;24.65;;
54428;SDS011;40337;52.978;6.310;2023-02-15T14:04:28;29.05;;;24.15;;
54428;SDS011;40337;52.978;6.310;2023-02-15T14:15:55;29.00;;;23.50;;
54428;SDS011;40337;52.978;6.310;2023-02-15T14:23:52;29.58;;;23.27;;
54428;SDS011;40337;52.978;6.310;2023-02-15T14:26:52;30.35;;;24.35;;
54428;SDS011;40337;52.978;6.310;2023-02-15T14:29:38;30.20;;;24.60;;
54428;SDS011;40337;52.978;6.310;2023-02-15T14:32:11;30.73;;;25.25;;
54428;SDS011;40337;52.978;6.310;2023-02-15T14:34:43;31.95;;;24.88;;
54428;SDS011;40337;52.978;6.310;2023-02-15T14:37:24;29.88;;;24.13;;
54428;SDS011;40337;52.978;6.310;2023-02-15T14:43:19;31.33;;;24.50;;
54428;SDS011;40337;52.978;6.310;2023-02-15T14:48:51;27.67;;;23.48;;
54428;SDS011;40337;52.978;6.310;2023-02-15T14:54:03;33.92;;;24.65;;
54428;SDS011;40337;52.978;6.310;2023-02-15T14:56:29;31.05;;;24.25;;
54428;SDS011;40337;52.978;6.310;2023-02-15T14:58:55;35.15;;;25.52;;
54428;SDS011;40337;52.978;6.310;2023-02-15T15:01:27;31.75;;;25.48;;
54428;SDS011;40337;52.978;6.310;2023-02-15T15:04:44;29.53;;;25.33;;
54428;SDS011;40337;52.978;6.310;2023-02-15T15:07:26;31.67;;;25.35;;
54428;SDS011;40337;52.978;6.310;2023-02-15T15:09:59;31.73;;;25.42;;
54428;SDS011;40337;52.978;6.310;2023-02-15T15:15:00;31.73;;;25.45;;
54428;SDS011;40337;52.978;6.310;2023-02-15T15:22:38;31.80;;;27.00;;
54428;SDS011;40337;52.978;6.310;2023-02-15T15:25:40;33.30;;;26.85;;
54428;SDS011;40337;52.978;6.310;2023-02-15T15:28:07;31.42;;;26.45;;
54428;SDS011;40337;52.978;6.310;2023-02-15T15:33:01;29.83;;;24.52;;
54428;SDS011;40337;52.978;6.310;2023-02-15T15:35:48;33.38;;;25.60;;
54428;SDS011;40337;52.978;6.310;2023-02-15T15:38:28;32.90;;;27.25;;
54428;SDS011;40337;52.978;6.310;2023-02-15T15:41:41;33.15;;;26.40;;
54428;SDS011;40337;52.978;6.310;2023-02-15T15:50:15;32.33;;;26.50;;
54428;SDS011;40337;52.978;6.310;2023-02-15T15:52:47;34.42;;;26.60;;
54428;SDS011;40337;52.978;6.310;2023-02-15T15:57:45;35.55;;;27.10;;
54428;SDS011;40337;52.978;6.310;2023-02-15T16:02:58;33.97;;;27.17;;
54428;SDS011;40337;52.978;6.310;2023-02-15T16:05:23;32.22;;;27.42;;
54428;SDS011;40337;52.978;6.310;2023-02-15T16:07:49;35.55;;;28.05;;
54428;SDS011;40337;52.978;6.310;2023-02-15T16:10:20;31.90;;;27.17;;
54428;SDS011;40337;52.978;6.310;2023-02-15T16:12:50;37.03;;;28.33;;
54428;SDS011;40337;52.978;6.310;2023-02-15T16:15:24;33.13;;;27.00;;
54428;SDS011;40337;52.978;6.310;2023-02-15T16:17:56;47.33;;;29.50;;
54428;SDS011;40337;52.978;6.310;2023-02-15T16:20:27;35.03;;;28.75;;
54428;SDS011;40337;52.978;6.310;2023-02-15T16:25:47;32.50;;;26.77;;
54428;SDS011;40337;52.978;6.310;2023-02-15T16:28:39;33.65;;;27.05;;
54428;SDS011;40337;52.978;6.310;2023-02-15T16:31:22;32.95;;;26.90;;
54428;SDS011;40337;52.978;6.310;2023-02-15T16:33:48;32.03;;;26.63;;
54428;SDS011;40337;52.978;6.310;2023-02-15T16:36:20;32.53;;;26.85;;
54428;SDS011;40337;52.978;6.310;2023-02-15T16:41:16;33.95;;;26.80;;
54428;SDS011;40337;52.978;6.310;2023-02-15T16:43:47;32.08;;;26.73;;
54428;SDS011;40337;52.978;6.310;2023-02-15T16:46:30;32.92;;;27.65;;
54428;SDS011;40337;52.978;6.310;2023-02-15T16:48:59;35.58;;;27.65;;
54428;SDS011;40337;52.978;6.310;2023-02-15T16:51:28;34.15;;;26.80;;
54428;SDS011;40337;52.978;6.310;2023-02-15T16:53:56;35.05;;;28.00;;
54428;SDS011;40337;52.978;6.310;2023-02-15T16:56:29;31.80;;;26.75;;
54428;SDS011;40337;52.978;6.310;2023-02-15T16:58:56;33.40;;;27.73;;
54428;SDS011;40337;52.978;6.310;2023-02-15T17:01:24;34.70;;;28.27;;
54428;SDS011;40337;52.978;6.310;2023-02-15T17:04:10;34.42;;;27.80;;
54428;SDS011;40337;52.978;6.310;2023-02-15T17:09:31;34.78;;;27.10;;
54428;SDS011;40337;52.978;6.310;2023-02-15T17:11:59;36.17;;;27.58;;
54428;SDS011;40337;52.978;6.310;2023-02-15T17:14:27;36.38;;;27.73;;
54428;SDS011;40337;52.978;6.310;2023-02-15T17:17:01;34.25;;;26.67;;
54428;SDS011;40337;52.978;6.310;2023-02-15T17:19:43;33.15;;;27.05;;
54428;SDS011;40337;52.978;6.310;2023-02-15T17:22:22;33.22;;;27.05;;